sensor_id;sensor_type;location;lat;lon;timestamp;temperature;humidity
2839;DHT22;1427;48.510;9.060;2022-08-19T00:01:30;20.50;99.90
2839;DHT22;1427;48.510;9.060;2022-08-19T00:04:05;20.40;99.90
2839;DHT22;1427;48.510;9.060;2022-08-19T00:06:35;20.40;99.90
2839;DHT22;1427;48.510;9.060;2022-08-19T00:09:05;20.40;99.90
2839;DHT22;1427;48.510;9.060;2022-08-19T00:11:34;20.40;99.90
2839;DHT22;1427;48.510;9.060;2022-08-19T00:14:03;20.40;99.90
2839;DHT22;1427;48.510;9.060;2022-08-19T00:16:32;20.30;99.90
2839;DHT22;1427;48.510;9.060;2022-08-19T00:19:00;20.30;99.90
2839;DHT22;1427;48.510;9.060;2022-08-19T00:21:28;20.40;99.90
2839;DHT22;1427;48.510;9.060;2022-08-19T00:23:58;20.30;99.90
2839;DHT22;1427;48.510;9.060;2022-08-19T00:26:27;20.30;99.90
2839;DHT22;1427;48.510;9.060;2022-08-19T00:28:56;20.30;99.90
2839;DHT22;1427;48.510;9.060;2022-08-19T00:31:24;20.30;99.90
2839;DHT22;1427;48.510;9.060;2022-08-19T00:33:54;20.30;99.90
2839;DHT22;1427;48.510;9.060;2022-08-19T00:36:22;20.20;99.90
2839;DHT22;1427;48.510;9.060;2022-08-19T00:38:50;20.20;99.90
2839;DHT22;1427;48.510;9.060;2022-08-19T00:41:23;20.20;99.90
2839;DHT22;1427;48.510;9.060;2022-08-19T00:44:03;20.20;99.90
2839;DHT22;1427;48.510;9.060;2022-08-19T00:46:33;20.10;99.90
2839;DHT22;1427;48.510;9.060;2022-08-19T00:49:08;19.90;99.90
2839;DHT22;1427;48.510;9.060;2022-08-19T00:51:37;20.00;99.90
2839;DHT22;1427;48.510;9.060;2022-08-19T00:54:05;19.80;99.90
2839;DHT22;1427;48.510;9.060;2022-08-19T00:56:35;19.80;99.90
2839;DHT22;1427;48.510;9.060;2022-08-19T00:59:07;19.80;99.90
2839;DHT22;1427;48.510;9.060;2022-08-19T01:01:36;19.80;99.90
2839;DHT22;1427;48.510;9.060;2022-08-19T01:04:04;19.70;99.90
2839;DHT22;1427;48.510;9.060;2022-08-19T01:06:33;19.80;99.90
2839;DHT22;1427;48.510;9.060;2022-08-19T01:09:04;19.80;99.90
2839;DHT22;1427;48.510;9.060;2022-08-19T01:11:36;19.80;99.90
2839;DHT22;1427;48.510;9.060;2022-08-19T01:14:06;19.80;99.90
2839;DHT22;1427;48.510;9.060;2022-08-19T01:16:35;19.70;99.90
2839;DHT22;1427;48.510;9.060;2022-08-19T01:19:11;19.70;99.90
2839;DHT22;1427;48.510;9.060;2022-08-19T01:21:43;19.70;99.90
2839;DHT22;1427;48.510;9.060;2022-08-19T01:24:15;19.60;99.90
2839;DHT22;1427;48.510;9.060;2022-08-19T01:26:44;19.70;99.90
2839;DHT22;1427;48.510;9.060;2022-08-19T01:29:12;19.60;99.90
2839;DHT22;1427;48.510;9.060;2022-08-19T01:31:40;19.60;99.90
2839;DHT22;1427;48.510;9.060;2022-08-19T01:34:08;19.60;99.90
2839;DHT22;1427;48.510;9.060;2022-08-19T01:36:40;19.50;99.90
2839;DHT22;1427;48.510;9.060;2022-08-19T01:39:15;19.50;99.90
2839;DHT22;1427;48.510;9.060;2022-08-19T01:41:44;19.40;99.90
2839;DHT22;1427;48.510;9.060;2022-08-19T01:44:14;19.40;99.90
2839;DHT22;1427;48.510;9.060;2022-08-19T01:46:47;19.30;99.90
2839;DHT22;1427;48.510;9.060;2022-08-19T01:49:17;19.30;99.90
2839;DHT22;1427;48.510;9.060;2022-08-19T01:51:46;19.40;99.90
2839;DHT22;1427;48.510;9.060;2022-08-19T01:54:18;19.40;99.90
2839;DHT22;1427;48.510;9.060;2022-08-19T01:57:02;19.40;99.90
2839;DHT22;1427;48.510;9.060;2022-08-19T01:59:32;19.40;99.90
2839;DHT22;1427;48.510;9.060;2022-08-19T02:02:04;19.50;99.90
2839;DHT22;1427;48.510;9.060;2022-08-19T02:04:34;19.30;99.90
2839;DHT22;1427;48.510;9.060;2022-08-19T02:07:02;19.30;99.90
2839;DHT22;1427;48.510;9.060;2022-08-19T02:09:32;19.20;99.90
2839;DHT22;1427;48.510;9.060;2022-08-19T02:12:00;19.20;99.90
2839;DHT22;1427;48.510;9.060;2022-08-19T02:14:28;19.20;99.90
2839;DHT22;1427;48.510;9.060;2022-08-19T02:16:56;19.10;99.90
2839;DHT22;1427;48.510;9.060;2022-08-19T02:19:24;19.00;99.90
2839;DHT22;1427;48.510;9.060;2022-08-19T02:21:52;18.90;99.90
2839;DHT22;1427;48.510;9.060;2022-08-19T02:24:20;18.90;99.90
2839;DHT22;1427;48.510;9.060;2022-08-19T02:26:50;18.90;99.90
2839;DHT22;1427;48.510;9.060;2022-08-19T02:29:18;18.90;99.90
2839;DHT22;1427;48.510;9.060;2022-08-19T02:31:46;18.90;99.90
2839;DHT22;1427;48.510;9.060;2022-08-19T02:34:14;18.90;99.90
2839;DHT22;1427;48.510;9.060;2022-08-19T02:36:42;18.90;99.90
2839;DHT22;1427;48.510;9.060;2022-08-19T02:39:21;18.90;99.90
2839;DHT22;1427;48.510;9.060;2022-08-19T02:41:48;18.90;99.90
2839;DHT22;1427;48.510;9.060;2022-08-19T02:44:18;18.90;99.90
2839;DHT22;1427;48.510;9.060;2022-08-19T02:46:57;18.90;99.90
2839;DHT22;1427;48.510;9.060;2022-08-19T02:49:25;18.90;99.90
2839;DHT22;1427;48.510;9.060;2022-08-19T02:51:53;18.90;99.90
2839;DHT22;1427;48.510;9.060;2022-08-19T02:54:21;19.00;99.90
2839;DHT22;1427;48.510;9.060;2022-08-19T02:56:49;19.00;99.90
2839;DHT22;1427;48.510;9.060;2022-08-19T02:59:19;19.00;99.90
2839;DHT22;1427;48.510;9.060;2022-08-19T03:01:48;18.90;99.90
2839;DHT22;1427;48.510;9.060;2022-08-19T03:04:17;18.90;99.90
2839;DHT22;1427;48.510;9.060;2022-08-19T03:06:47;18.80;99.90
2839;DHT22;1427;48.510;9.060;2022-08-19T03:09:16;18.70;99.90
2839;DHT22;1427;48.510;9.060;2022-08-19T03:11:44;18.80;99.90
2839;DHT22;1427;48.510;9.060;2022-08-19T03:14:15;18.80;99.90
2839;DHT22;1427;48.510;9.060;2022-08-19T03:16:47;18.70;99.90
2839;DHT22;1427;48.510;9.060;2022-08-19T03:19:17;18.70;99.90
2839;DHT22;1427;48.510;9.060;2022-08-19T03:21:45;18.70;99.90
2839;DHT22;1427;48.510;9.060;2022-08-19T03:24:15;18.80;99.90
2839;DHT22;1427;48.510;9.060;2022-08-19T03:26:45;18.80;99.90
2839;DHT22;1427;48.510;9.060;2022-08-19T03:29:15;18.70;99.90
2839;DHT22;1427;48.510;9.060;2022-08-19T03:31:58;18.70;99.90
2839;DHT22;1427;48.510;9.060;2022-08-19T03:34:29;18.70;99.90
2839;DHT22;1427;48.510;9.060;2022-08-19T03:36:59;18.70;99.90
2839;DHT22;1427;48.510;9.060;2022-08-19T03:39:27;18.70;99.90
2839;DHT22;1427;48.510;9.060;2022-08-19T03:41:55;18.70;99.90
2839;DHT22;1427;48.510;9.060;2022-08-19T03:44:46;18.70;99.90
2839;DHT22;1427;48.510;9.060;2022-08-19T03:47:16;18.80;99.90
2839;DHT22;1427;48.510;9.060;2022-08-19T03:49:44;18.80;99.90
2839;DHT22;1427;48.510;9.060;2022-08-19T03:52:13;18.80;99.90
2839;DHT22;1427;48.510;9.060;2022-08-19T03:54:42;18.60;99.90
2839;DHT22;1427;48.510;9.060;2022-08-19T03:57:10;18.60;99.90
2839;DHT22;1427;48.510;9.060;2022-08-19T03:59:39;18.60;99.90
2839;DHT22;1427;48.510;9.060;2022-08-19T04:02:09;18.60;99.90
2839;DHT22;1427;48.510;9.060;2022-08-19T04:04:40;18.60;99.90
2839;DHT22;1427;48.510;9.060;2022-08-19T04:07:12;18.60;99.90
2839;DHT22;1427;48.510;9.060;2022-08-19T04:09:42;18.70;99.90
2839;DHT22;1427;48.510;9.060;2022-08-19T04:12:11;18.60;99.90
2839;DHT22;1427;48.510;9.060;2022-08-19T04:14:39;18.60;99.90
2839;DHT22;1427;48.510;9.060;2022-08-19T04:17:08;18.60;99.90
2839;DHT22;1427;48.510;9.060;2022-08-19T04:19:36;18.60;99.90
2839;DHT22;1427;48.510;9.060;2022-08-19T04:22:06;18.60;99.90
2839;DHT22;1427;48.510;9.060;2022-08-19T04:24:35;18.80;99.90
2839;DHT22;1427;48.510;9.060;2022-08-19T04:27:03;18.60;99.90
2839;DHT22;1427;48.510;9.060;2022-08-19T04:29:32;18.60;99.90
2839;DHT22;1427;48.510;9.060;2022-08-19T04:32:01;18.60;99.90
2839;DHT22;1427;48.510;9.060;2022-08-19T04:34:36;18.70;99.90
2839;DHT22;1427;48.510;9.060;2022-08-19T04:37:26;18.60;99.90
2839;DHT22;1427;48.510;9.060;2022-08-19T04:40:00;18.70;99.90
2839;DHT22;1427;48.510;9.060;2022-08-19T04:42:45;18.60;99.90
2839;DHT22;1427;48.510;9.060;2022-08-19T04:45:14;18.50;99.90
2839;DHT22;1427;48.510;9.060;2022-08-19T04:47:44;18.60;99.90
2839;DHT22;1427;48.510;9.060;2022-08-19T04:50:24;18.70;99.90
2839;DHT22;1427;48.510;9.060;2022-08-19T04:52:54;18.70;99.90
2839;DHT22;1427;48.510;9.060;2022-08-19T04:55:23;18.70;99.90
2839;DHT22;1427;48.510;9.060;2022-08-19T04:57:53;18.70;99.90
2839;DHT22;1427;48.510;9.060;2022-08-19T05:00:21;18.70;99.90
2839;DHT22;1427;48.510;9.060;2022-08-19T05:02:49;18.70;99.90
2839;DHT22;1427;48.510;9.060;2022-08-19T05:05:18;18.70;99.90
2839;DHT22;1427;48.510;9.060;2022-08-19T05:07:46;18.70;99.90
2839;DHT22;1427;48.510;9.060;2022-08-19T05:10:16;18.80;99.90
2839;DHT22;1427;48.510;9.060;2022-08-19T05:12:44;18.70;99.90
2839;DHT22;1427;48.510;9.060;2022-08-19T05:15:12;18.70;99.90
2839;DHT22;1427;48.510;9.060;2022-08-19T05:17:40;18.70;99.90
2839;DHT22;1427;48.510;9.060;2022-08-19T05:20:29;18.80;99.90
2839;DHT22;1427;48.510;9.060;2022-08-19T05:23:15;18.80;99.90
2839;DHT22;1427;48.510;9.060;2022-08-19T05:25:49;18.90;99.90
2839;DHT22;1427;48.510;9.060;2022-08-19T05:28:18;18.90;99.90
2839;DHT22;1427;48.510;9.060;2022-08-19T05:30:46;18.90;99.90
2839;DHT22;1427;48.510;9.060;2022-08-19T05:33:15;18.90;99.90
2839;DHT22;1427;48.510;9.060;2022-08-19T05:35:43;18.80;99.90
2839;DHT22;1427;48.510;9.060;2022-08-19T05:38:12;18.90;99.90
2839;DHT22;1427;48.510;9.060;2022-08-19T05:40:41;18.90;99.90
2839;DHT22;1427;48.510;9.060;2022-08-19T05:43:10;18.90;99.90
2839;DHT22;1427;48.510;9.060;2022-08-19T05:45:40;18.90;99.90
2839;DHT22;1427;48.510;9.060;2022-08-19T05:48:09;18.90;99.90
2839;DHT22;1427;48.510;9.060;2022-08-19T05:50:38;19.00;99.90
2839;DHT22;1427;48.510;9.060;2022-08-19T05:53:07;19.00;99.90
2839;DHT22;1427;48.510;9.060;2022-08-19T05:55:36;19.00;99.90
2839;DHT22;1427;48.510;9.060;2022-08-19T05:58:13;19.00;99.90
2839;DHT22;1427;48.510;9.060;2022-08-19T06:00:43;19.00;99.90
2839;DHT22;1427;48.510;9.060;2022-08-19T06:03:11;18.80;99.90
2839;DHT22;1427;48.510;9.060;2022-08-19T06:05:41;19.00;99.90
2839;DHT22;1427;48.510;9.060;2022-08-19T06:08:18;18.90;99.90
2839;DHT22;1427;48.510;9.060;2022-08-19T06:11:17;19.00;99.90
2839;DHT22;1427;48.510;9.060;2022-08-19T06:13:48;19.00;99.90
2839;DHT22;1427;48.510;9.060;2022-08-19T06:16:26;19.00;99.90
2839;DHT22;1427;48.510;9.060;2022-08-19T06:18:55;19.00;99.90
2839;DHT22;1427;48.510;9.060;2022-08-19T06:21:26;19.10;99.90
2839;DHT22;1427;48.510;9.060;2022-08-19T06:23:56;19.10;99.90
2839;DHT22;1427;48.510;9.060;2022-08-19T06:26:24;19.10;99.90
2839;DHT22;1427;48.510;9.060;2022-08-19T06:28:54;19.10;99.90
2839;DHT22;1427;48.510;9.060;2022-08-19T06:31:24;19.00;99.90
2839;DHT22;1427;48.510;9.060;2022-08-19T06:33:52;19.00;99.90
2839;DHT22;1427;48.510;9.060;2022-08-19T06:36:23;19.00;99.90
2839;DHT22;1427;48.510;9.060;2022-08-19T06:38:53;19.00;99.90
2839;DHT22;1427;48.510;9.060;2022-08-19T06:41:22;19.00;99.90
2839;DHT22;1427;48.510;9.060;2022-08-19T06:43:50;19.00;99.90
2839;DHT22;1427;48.510;9.060;2022-08-19T06:46:23;19.00;99.90
2839;DHT22;1427;48.510;9.060;2022-08-19T06:48:51;19.00;99.90
2839;DHT22;1427;48.510;9.060;2022-08-19T06:51:21;19.10;99.90
2839;DHT22;1427;48.510;9.060;2022-08-19T06:53:55;19.10;99.90
2839;DHT22;1427;48.510;9.060;2022-08-19T06:56:27;19.10;99.90
2839;DHT22;1427;48.510;9.060;2022-08-19T06:59:00;19.10;99.90
2839;DHT22;1427;48.510;9.060;2022-08-19T07:01:34;19.10;99.90
2839;DHT22;1427;48.510;9.060;2022-08-19T07:04:05;19.20;99.90
2839;DHT22;1427;48.510;9.060;2022-08-19T07:06:37;19.20;99.90
2839;DHT22;1427;48.510;9.060;2022-08-19T07:09:11;19.20;99.90
2839;DHT22;1427;48.510;9.060;2022-08-19T07:11:45;19.40;99.90
2839;DHT22;1427;48.510;9.060;2022-08-19T07:14:14;19.30;99.90
2839;DHT22;1427;48.510;9.060;2022-08-19T07:16:49;19.30;99.90
2839;DHT22;1427;48.510;9.060;2022-08-19T07:19:18;19.30;99.90
2839;DHT22;1427;48.510;9.060;2022-08-19T07:21:47;19.30;99.90
2839;DHT22;1427;48.510;9.060;2022-08-19T07:24:16;19.30;99.90
2839;DHT22;1427;48.510;9.060;2022-08-19T07:26:45;19.30;99.90
2839;DHT22;1427;48.510;9.060;2022-08-19T07:29:18;19.30;99.90
2839;DHT22;1427;48.510;9.060;2022-08-19T07:31:53;19.30;99.90
2839;DHT22;1427;48.510;9.060;2022-08-19T07:34:23;19.30;99.90
2839;DHT22;1427;48.510;9.060;2022-08-19T07:36:51;19.30;99.90
2839;DHT22;1427;48.510;9.060;2022-08-19T07:39:22;19.40;99.90
2839;DHT22;1427;48.510;9.060;2022-08-19T07:41:50;19.40;99.90
2839;DHT22;1427;48.510;9.060;2022-08-19T07:44:19;19.40;99.90
2839;DHT22;1427;48.510;9.060;2022-08-19T07:46:50;19.40;99.90
2839;DHT22;1427;48.510;9.060;2022-08-19T07:49:21;19.40;99.90
2839;DHT22;1427;48.510;9.060;2022-08-19T07:51:51;19.30;99.90
2839;DHT22;1427;48.510;9.060;2022-08-19T07:54:21;19.30;99.90
2839;DHT22;1427;48.510;9.060;2022-08-19T07:56:49;19.40;99.90
2839;DHT22;1427;48.510;9.060;2022-08-19T07:59:19;19.40;99.90
2839;DHT22;1427;48.510;9.060;2022-08-19T08:01:48;19.40;99.90
2839;DHT22;1427;48.510;9.060;2022-08-19T08:04:17;19.40;99.90
2839;DHT22;1427;48.510;9.060;2022-08-19T08:07:05;19.40;99.90
2839;DHT22;1427;48.510;9.060;2022-08-19T08:09:57;19.50;99.90
2839;DHT22;1427;48.510;9.060;2022-08-19T08:12:33;19.70;99.90
2839;DHT22;1427;48.510;9.060;2022-08-19T08:15:06;19.60;99.90
2839;DHT22;1427;48.510;9.060;2022-08-19T08:17:38;19.60;99.90
2839;DHT22;1427;48.510;9.060;2022-08-19T08:20:16;19.60;99.90
2839;DHT22;1427;48.510;9.060;2022-08-19T08:22:47;19.50;99.90
2839;DHT22;1427;48.510;9.060;2022-08-19T08:25:32;19.50;99.90
2839;DHT22;1427;48.510;9.060;2022-08-19T08:28:03;19.60;99.90
2839;DHT22;1427;48.510;9.060;2022-08-19T08:30:32;19.70;99.90
2839;DHT22;1427;48.510;9.060;2022-08-19T08:33:03;19.70;99.90
2839;DHT22;1427;48.510;9.060;2022-08-19T08:35:32;19.80;99.90
2839;DHT22;1427;48.510;9.060;2022-08-19T08:38:02;19.80;99.90
2839;DHT22;1427;48.510;9.060;2022-08-19T08:40:38;19.90;99.90
2839;DHT22;1427;48.510;9.060;2022-08-19T08:43:11;19.80;99.90
2839;DHT22;1427;48.510;9.060;2022-08-19T08:45:47;19.80;99.90
2839;DHT22;1427;48.510;9.060;2022-08-19T08:48:24;19.80;99.90
2839;DHT22;1427;48.510;9.060;2022-08-19T08:51:03;19.90;99.90
2839;DHT22;1427;48.510;9.060;2022-08-19T08:53:36;20.00;99.90
2839;DHT22;1427;48.510;9.060;2022-08-19T08:56:09;20.00;99.90
2839;DHT22;1427;48.510;9.060;2022-08-19T08:58:49;19.90;99.90
2839;DHT22;1427;48.510;9.060;2022-08-19T09:01:20;19.80;99.90
2839;DHT22;1427;48.510;9.060;2022-08-19T09:03:49;19.70;99.90
2839;DHT22;1427;48.510;9.060;2022-08-19T09:06:25;19.60;99.90
2839;DHT22;1427;48.510;9.060;2022-08-19T09:09:03;19.60;99.90
2839;DHT22;1427;48.510;9.060;2022-08-19T09:11:50;19.50;99.90
2839;DHT22;1427;48.510;9.060;2022-08-19T09:14:37;19.40;99.90
2839;DHT22;1427;48.510;9.060;2022-08-19T09:17:17;19.50;99.90
2839;DHT22;1427;48.510;9.060;2022-08-19T09:19:50;19.50;99.90
2839;DHT22;1427;48.510;9.060;2022-08-19T09:22:20;19.60;99.90
2839;DHT22;1427;48.510;9.060;2022-08-19T09:24:54;19.40;99.90
2839;DHT22;1427;48.510;9.060;2022-08-19T09:27:23;19.50;99.90
2839;DHT22;1427;48.510;9.060;2022-08-19T09:30:12;19.60;99.90
2839;DHT22;1427;48.510;9.060;2022-08-19T09:32:42;19.70;99.90
2839;DHT22;1427;48.510;9.060;2022-08-19T09:35:11;19.70;99.90
2839;DHT22;1427;48.510;9.060;2022-08-19T09:37:39;19.80;99.90
2839;DHT22;1427;48.510;9.060;2022-08-19T09:40:11;19.70;99.90
2839;DHT22;1427;48.510;9.060;2022-08-19T09:42:41;19.60;99.90
2839;DHT22;1427;48.510;9.060;2022-08-19T09:45:17;19.50;99.90
2839;DHT22;1427;48.510;9.060;2022-08-19T09:47:49;19.70;99.90
2839;DHT22;1427;48.510;9.060;2022-08-19T09:50:21;19.80;99.90
2839;DHT22;1427;48.510;9.060;2022-08-19T09:52:49;19.80;99.90
2839;DHT22;1427;48.510;9.060;2022-08-19T09:55:25;19.80;99.90
2839;DHT22;1427;48.510;9.060;2022-08-19T09:57:59;19.70;99.90
2839;DHT22;1427;48.510;9.060;2022-08-19T10:00:27;19.60;99.90
2839;DHT22;1427;48.510;9.060;2022-08-19T10:02:55;19.60;99.90
2839;DHT22;1427;48.510;9.060;2022-08-19T10:05:23;19.60;99.90
2839;DHT22;1427;48.510;9.060;2022-08-19T10:08:09;19.60;99.90
2839;DHT22;1427;48.510;9.060;2022-08-19T10:10:42;19.60;99.90
2839;DHT22;1427;48.510;9.060;2022-08-19T10:13:13;19.60;99.90
2839;DHT22;1427;48.510;9.060;2022-08-19T10:15:42;19.60;99.90
2839;DHT22;1427;48.510;9.060;2022-08-19T10:18:13;19.60;99.90
2839;DHT22;1427;48.510;9.060;2022-08-19T10:20:43;19.60;99.90
2839;DHT22;1427;48.510;9.060;2022-08-19T10:23:18;19.50;99.90
2839;DHT22;1427;48.510;9.060;2022-08-19T10:25:48;19.60;99.90
2839;DHT22;1427;48.510;9.060;2022-08-19T10:28:18;19.50;99.90
2839;DHT22;1427;48.510;9.060;2022-08-19T10:30:46;19.50;99.90
2839;DHT22;1427;48.510;9.060;2022-08-19T10:33:14;19.60;99.90
2839;DHT22;1427;48.510;9.060;2022-08-19T10:36:05;19.70;99.90
2839;DHT22;1427;48.510;9.060;2022-08-19T10:38:34;19.70;99.90
2839;DHT22;1427;48.510;9.060;2022-08-19T10:41:14;19.70;99.90
2839;DHT22;1427;48.510;9.060;2022-08-19T10:43:44;19.60;99.90
2839;DHT22;1427;48.510;9.060;2022-08-19T10:46:14;19.50;99.90
2839;DHT22;1427;48.510;9.060;2022-08-19T10:48:44;19.50;99.90
2839;DHT22;1427;48.510;9.060;2022-08-19T10:51:13;19.50;99.90
2839;DHT22;1427;48.510;9.060;2022-08-19T10:54:00;19.60;99.90
2839;DHT22;1427;48.510;9.060;2022-08-19T10:56:34;19.60;99.90
2839;DHT22;1427;48.510;9.060;2022-08-19T10:59:21;19.60;99.90
2839;DHT22;1427;48.510;9.060;2022-08-19T11:01:53;19.70;99.90
2839;DHT22;1427;48.510;9.060;2022-08-19T11:04:23;19.70;99.90
2839;DHT22;1427;48.510;9.060;2022-08-19T11:06:55;19.70;99.90
2839;DHT22;1427;48.510;9.060;2022-08-19T11:09:25;19.80;99.90
2839;DHT22;1427;48.510;9.060;2022-08-19T11:12:01;19.70;99.90
2839;DHT22;1427;48.510;9.060;2022-08-19T11:14:31;19.70;99.90
2839;DHT22;1427;48.510;9.060;2022-08-19T11:17:01;19.80;99.90
2839;DHT22;1427;48.510;9.060;2022-08-19T11:19:29;19.80;99.90
2839;DHT22;1427;48.510;9.060;2022-08-19T11:21:58;19.90;99.90
2839;DHT22;1427;48.510;9.060;2022-08-19T11:24:30;19.80;99.90
2839;DHT22;1427;48.510;9.060;2022-08-19T11:27:07;19.90;99.90
2839;DHT22;1427;48.510;9.060;2022-08-19T11:29:37;19.70;99.90
2839;DHT22;1427;48.510;9.060;2022-08-19T11:32:08;19.70;99.90
2839;DHT22;1427;48.510;9.060;2022-08-19T11:34:36;19.70;99.90
2839;DHT22;1427;48.510;9.060;2022-08-19T11:37:05;19.70;99.90
2839;DHT22;1427;48.510;9.060;2022-08-19T11:39:36;19.60;99.90
2839;DHT22;1427;48.510;9.060;2022-08-19T11:42:07;19.60;99.90
2839;DHT22;1427;48.510;9.060;2022-08-19T11:44:49;19.60;99.90
2839;DHT22;1427;48.510;9.060;2022-08-19T11:47:17;19.60;99.90
2839;DHT22;1427;48.510;9.060;2022-08-19T11:49:46;19.60;99.90
2839;DHT22;1427;48.510;9.060;2022-08-19T11:52:14;19.60;99.90
2839;DHT22;1427;48.510;9.060;2022-08-19T11:54:42;19.50;99.90
2839;DHT22;1427;48.510;9.060;2022-08-19T11:57:12;19.50;99.90
2839;DHT22;1427;48.510;9.060;2022-08-19T11:59:48;19.60;99.90
2839;DHT22;1427;48.510;9.060;2022-08-19T12:02:16;19.50;99.90
2839;DHT22;1427;48.510;9.060;2022-08-19T12:04:45;19.50;99.90
2839;DHT22;1427;48.510;9.060;2022-08-19T12:07:14;19.50;99.90
2839;DHT22;1427;48.510;9.060;2022-08-19T12:09:42;19.50;99.90
2839;DHT22;1427;48.510;9.060;2022-08-19T12:12:15;19.40;99.90
2839;DHT22;1427;48.510;9.060;2022-08-19T12:14:43;19.50;99.90
2839;DHT22;1427;48.510;9.060;2022-08-19T12:17:13;19.50;99.90
2839;DHT22;1427;48.510;9.060;2022-08-19T12:19:41;19.50;99.90
2839;DHT22;1427;48.510;9.060;2022-08-19T12:22:10;19.40;99.90
2839;DHT22;1427;48.510;9.060;2022-08-19T12:24:38;19.40;99.90
2839;DHT22;1427;48.510;9.060;2022-08-19T12:27:06;19.40;99.90
2839;DHT22;1427;48.510;9.060;2022-08-19T12:29:40;19.40;99.90
2839;DHT22;1427;48.510;9.060;2022-08-19T12:32:08;19.40;99.90
2839;DHT22;1427;48.510;9.060;2022-08-19T12:34:38;19.40;99.90
2839;DHT22;1427;48.510;9.060;2022-08-19T12:37:07;19.40;99.90
2839;DHT22;1427;48.510;9.060;2022-08-19T12:39:37;19.40;99.90
2839;DHT22;1427;48.510;9.060;2022-08-19T12:42:06;19.40;99.90
2839;DHT22;1427;48.510;9.060;2022-08-19T12:44:36;19.40;99.90
2839;DHT22;1427;48.510;9.060;2022-08-19T12:47:11;19.50;99.90
2839;DHT22;1427;48.510;9.060;2022-08-19T12:49:41;19.60;99.90
2839;DHT22;1427;48.510;9.060;2022-08-19T12:52:21;19.60;99.90
2839;DHT22;1427;48.510;9.060;2022-08-19T12:54:50;19.60;99.90
2839;DHT22;1427;48.510;9.060;2022-08-19T12:57:21;19.60;99.90
2839;DHT22;1427;48.510;9.060;2022-08-19T12:59:59;19.60;99.90
2839;DHT22;1427;48.510;9.060;2022-08-19T13:02:32;19.60;99.90
2839;DHT22;1427;48.510;9.060;2022-08-19T13:05:06;19.60;99.90
2839;DHT22;1427;48.510;9.060;2022-08-19T13:07:35;19.70;99.90
2839;DHT22;1427;48.510;9.060;2022-08-19T13:10:06;19.60;99.90
2839;DHT22;1427;48.510;9.060;2022-08-19T13:12:35;19.70;99.90
2839;DHT22;1427;48.510;9.060;2022-08-19T13:15:04;19.70;99.90
2839;DHT22;1427;48.510;9.060;2022-08-19T13:17:39;19.70;99.90
2839;DHT22;1427;48.510;9.060;2022-08-19T13:20:09;19.90;99.90
2839;DHT22;1427;48.510;9.060;2022-08-19T13:22:38;19.80;99.90
2839;DHT22;1427;48.510;9.060;2022-08-19T13:25:07;19.70;99.90
2839;DHT22;1427;48.510;9.060;2022-08-19T13:27:36;19.70;99.90
2839;DHT22;1427;48.510;9.060;2022-08-19T13:30:07;19.70;99.90
2839;DHT22;1427;48.510;9.060;2022-08-19T13:32:54;19.70;99.90
2839;DHT22;1427;48.510;9.060;2022-08-19T13:35:45;19.70;99.90
2839;DHT22;1427;48.510;9.060;2022-08-19T13:38:15;19.80;99.90
2839;DHT22;1427;48.510;9.060;2022-08-19T13:40:44;19.70;99.90
2839;DHT22;1427;48.510;9.060;2022-08-19T13:43:13;19.70;99.90
2839;DHT22;1427;48.510;9.060;2022-08-19T13:45:50;19.80;99.90
2839;DHT22;1427;48.510;9.060;2022-08-19T13:48:21;19.80;99.90
2839;DHT22;1427;48.510;9.060;2022-08-19T13:50:50;19.90;99.90
2839;DHT22;1427;48.510;9.060;2022-08-19T13:53:18;20.10;99.90
2839;DHT22;1427;48.510;9.060;2022-08-19T13:55:46;20.00;99.90
2839;DHT22;1427;48.510;9.060;2022-08-19T13:58:16;20.00;99.90
2839;DHT22;1427;48.510;9.060;2022-08-19T14:00:46;19.90;99.90
2839;DHT22;1427;48.510;9.060;2022-08-19T14:03:15;19.90;99.90
2839;DHT22;1427;48.510;9.060;2022-08-19T14:05:44;19.90;99.90
2839;DHT22;1427;48.510;9.060;2022-08-19T14:08:12;19.80;99.90
2839;DHT22;1427;48.510;9.060;2022-08-19T14:10:41;19.80;99.90
2839;DHT22;1427;48.510;9.060;2022-08-19T14:13:13;19.70;99.90
2839;DHT22;1427;48.510;9.060;2022-08-19T14:15:42;19.80;99.90
2839;DHT22;1427;48.510;9.060;2022-08-19T14:18:11;19.70;99.90
2839;DHT22;1427;48.510;9.060;2022-08-19T14:20:40;19.70;99.90
2839;DHT22;1427;48.510;9.060;2022-08-19T14:23:10;19.80;99.90
2839;DHT22;1427;48.510;9.060;2022-08-19T14:25:38;19.80;99.90
2839;DHT22;1427;48.510;9.060;2022-08-19T14:28:07;19.80;99.90
2839;DHT22;1427;48.510;9.060;2022-08-19T14:30:36;19.80;99.90
2839;DHT22;1427;48.510;9.060;2022-08-19T14:33:06;19.80;99.90
2839;DHT22;1427;48.510;9.060;2022-08-19T14:35:35;19.90;99.90
2839;DHT22;1427;48.510;9.060;2022-08-19T14:38:05;19.90;99.90
2839;DHT22;1427;48.510;9.060;2022-08-19T14:40:35;19.90;99.90
2839;DHT22;1427;48.510;9.060;2022-08-19T14:43:04;19.90;99.90
2839;DHT22;1427;48.510;9.060;2022-08-19T14:45:35;19.90;99.90
2839;DHT22;1427;48.510;9.060;2022-08-19T14:48:04;20.00;99.90
2839;DHT22;1427;48.510;9.060;2022-08-19T14:50:32;20.10;99.90
2839;DHT22;1427;48.510;9.060;2022-08-19T14:53:06;20.20;99.90
2839;DHT22;1427;48.510;9.060;2022-08-19T14:55:42;20.20;99.90
2839;DHT22;1427;48.510;9.060;2022-08-19T14:58:12;20.20;99.90
2839;DHT22;1427;48.510;9.060;2022-08-19T15:00:57;20.20;99.90
2839;DHT22;1427;48.510;9.060;2022-08-19T15:03:25;20.20;99.90
2839;DHT22;1427;48.510;9.060;2022-08-19T15:05:53;20.20;99.90
2839;DHT22;1427;48.510;9.060;2022-08-19T15:08:23;20.30;99.90
2839;DHT22;1427;48.510;9.060;2022-08-19T15:10:55;20.40;99.90
2839;DHT22;1427;48.510;9.060;2022-08-19T15:13:25;20.40;99.90
2839;DHT22;1427;48.510;9.060;2022-08-19T15:15:54;20.50;99.90
2839;DHT22;1427;48.510;9.060;2022-08-19T15:18:23;20.50;99.90
2839;DHT22;1427;48.510;9.060;2022-08-19T15:20:51;20.50;99.90
2839;DHT22;1427;48.510;9.060;2022-08-19T15:23:20;20.60;99.90
2839;DHT22;1427;48.510;9.060;2022-08-19T15:25:49;20.60;99.90
2839;DHT22;1427;48.510;9.060;2022-08-19T15:28:21;20.60;99.90
2839;DHT22;1427;48.510;9.060;2022-08-19T15:30:50;20.60;99.90
2839;DHT22;1427;48.510;9.060;2022-08-19T15:33:18;20.60;99.90
2839;DHT22;1427;48.510;9.060;2022-08-19T15:35:48;20.60;99.90
2839;DHT22;1427;48.510;9.060;2022-08-19T15:38:18;20.70;99.90
2839;DHT22;1427;48.510;9.060;2022-08-19T15:40:48;20.70;99.90
2839;DHT22;1427;48.510;9.060;2022-08-19T15:43:18;20.70;99.90
2839;DHT22;1427;48.510;9.060;2022-08-19T15:45:49;20.80;99.90
2839;DHT22;1427;48.510;9.060;2022-08-19T15:48:17;20.70;99.90
2839;DHT22;1427;48.510;9.060;2022-08-19T15:50:45;20.70;99.90
2839;DHT22;1427;48.510;9.060;2022-08-19T15:53:13;20.70;99.90
2839;DHT22;1427;48.510;9.060;2022-08-19T15:55:43;20.70;99.90
2839;DHT22;1427;48.510;9.060;2022-08-19T15:58:15;20.70;99.90
2839;DHT22;1427;48.510;9.060;2022-08-19T16:01:04;20.70;99.90
2839;DHT22;1427;48.510;9.060;2022-08-19T16:03:59;20.70;99.90
2839;DHT22;1427;48.510;9.060;2022-08-19T16:06:47;20.70;99.90
2839;DHT22;1427;48.510;9.060;2022-08-19T16:09:17;20.80;99.90
2839;DHT22;1427;48.510;9.060;2022-08-19T16:11:53;20.80;99.90
2839;DHT22;1427;48.510;9.060;2022-08-19T16:14:28;20.80;99.90
2839;DHT22;1427;48.510;9.060;2022-08-19T16:16:59;20.90;99.90
2839;DHT22;1427;48.510;9.060;2022-08-19T16:19:27;21.00;99.90
2839;DHT22;1427;48.510;9.060;2022-08-19T16:21:56;21.10;99.90
2839;DHT22;1427;48.510;9.060;2022-08-19T16:24:25;21.20;99.90
2839;DHT22;1427;48.510;9.060;2022-08-19T16:26:54;21.20;99.90
2839;DHT22;1427;48.510;9.060;2022-08-19T16:29:23;21.30;99.90